Alton, UT (84710)

12:28 PM MDT on September 02, 2014 (GMT -0600)
Swains Creek | Change Station
CLOSE
Current Station
Personal Weather Station
Location: Swains Creek, UT
Elevation: 7990 ft
Nearby Weather Stations

Elev 7990 ft 37.48 °N, 112.61 °W | Updated 15 seconds ago

Clear
Clear
77.5 °F
Feels Like 77 °F
N
8.1
Wind Variable Wind from NW
Gusts 10.7 mph

Today
High -- | Low -- °F
--% Chance of Precip.
Yesterday
High -- | Low -- °F
Precip. -- in
7:01 AM 7:57 PM
First Quarter, 53% visible
Pressure 29.93 in
Visibility 10.0 miles
Clouds Clear
Heat Index 77 °F
Dew Point 38 °F
Humidity 24%
Rainfall 0.00 in
Snow Depth 0 in , 1 in , 3 in
UV 9 out of 12
Pollen 7.50 out of 12
Air Quality Not available.
Flu Activity Not available.
METAR KBCE 021753Z AUTO 20009KT 10SM CLR 24/05 A3028 RMK AO2 SLP133 T02440050 10244 20056 58006

More Conditions Fewer Conditions

Pressure 29.93 in
Visibility 10.0 miles
Clouds Clear
Heat Index 77 °F
Dew Point 38 °F
Humidity 24%
Rainfall 0.00 in
Snow Depth 0 in , 1 in , 3 in
UV 9 out of 12
Pollen 7.50 out of 12
Air Quality Not available.
Flu Activity Not available.
METAR KBCE 021753Z AUTO 20009KT 10SM CLR 24/05 A3028 RMK AO2 SLP133 T02440050 10244 20056 58006

More Conditions Fewer Conditions

10-Day Weather Forecast

Almanac

Astronomy

Sep. 02, 2014 Rise Set
Actual Time 7:01 AM MDT 7:57 PM MDT
Civil Twilight 6:34 AM MDT 8:24 PM MDT
Nautical Twilight 6:03 AM MDT 8:55 PM MDT
Astronomical Twilight 5:30 AM MDT 9:28 PM MDT
Moon 2:40 PM MDT 12:11 AM MDT
Length of Visible Light 13h 49m
Length of Day
12h 56m
Tomorrow will be 2m 19s shorter.
First Quarter, 53% of the Moon is Illuminated
Today
First Quarter
Sep 8
Full
Sep 15
Last Quarter
Sep 24
New
Oct 1
First Quarter

Today's Extremes

State Highs State Lows

Community

WunderPhotos

Upload Photos

1,749,727 photos uploaded!

WunderBlogs® & News

Nearby

Snow Depth

Station Depth Elevation
Long Valley Jct 0 in 7360 ft
Midway Valley 1 in 9800 ft
Agua Canyon 3 in 8900 ft
Merchant Valley 0 in 8750 ft
Gooseberry R.S. 0 in 7920 ft

Earthquake Activity

City Distance Mag. Time & Date
No recent earthquake activity has been reported nearby.
Minimum magnitude displayed is 2.5.

Coastal Water Temperatures

Place Temperature
No Stations Reporting

Nearby Weather Stations